| Date | Time | Temp. (oF) | Dew Point (oF) | Rel. Hum. (%) | Press. (in.) | Wind Dir. | Wind Speed (mph) | Hourly Rainfall (in.) |
|
|---|---|---|---|---|---|---|---|---|---|
| 1 | 04/23 | 00:00 | 56 | 43 | 62 | 29.78 | W | 1 | 0.00 |
| 2 | 04/22 | 23:00 | 57 | 43 | 60 | 29.77 | SW | 3 | 0.00 |
| 3 | 04/22 | 22:00 | 58 | 42 | 56 | 29.77 | WSW | 3 | 0.00 |
| 4 | 04/22 | 21:00 | 59 | 41 | 53 | 29.74 | SW | 3 | 0.00 |
| 5 | 04/22 | 20:00 | 62 | 40 | 46 | 29.73 | WSW | 3 | 0.00 |
| 6 | 04/22 | 19:00 | 65 | 39 | 39 | 29.71 | WNW | 6 | 0.00 |
| 7 | 04/22 | 18:00 | 69 | 38 | 33 | 29.70 | NNW | 5 | 0.00 |
| 8 | 04/22 | 17:00 | 70 | 40 | 35 | 29.67 | WSW | 5 | 0.00 |
| 9 | 04/22 | 16:00 | 71 | 41 | 35 | 29.67 | W | 9 | 0.00 |
| 10 | 04/22 | 15:00 | 71 | 43 | 37 | 29.69 | W | 5 | 0.00 |
| 11 | 04/22 | 14:00 | 70 | 46 | 44 | 29.71 | SSW | 7 | 0.00 |
| 12 | 04/22 | 13:00 | 67 | 51 | 58 | 29.73 | WSW | 2 | 0.00 |
| 13 | 04/22 | 12:00 | 63 | 54 | 74 | 29.76 | SSW | 2 | 0.00 |
| 14 | 04/22 | 11:00 | 57 | 52 | 86 | 29.78 | SW | 2 | 0.00 |
| 15 | 04/22 | 10:00 | 53 | 51 | 95 | 29.78 | SSW | 4 | 0.00 |
| 16 | 04/22 | 09:00 | 51 | 50 | 99 | 29.78 | SSW | 2 | 0.00 |
| 17 | 04/22 | 08:00 | 50 | 50 | 100 | 29.78 | SW | 2 | 0.00 |
| 18 | 04/22 | 07:00 | 49 | 49 | 100 | 29.77 | NW | 2 | 0.00 |
| 19 | 04/22 | 06:00 | 48 | 48 | 100 | 29.75 | SW | 2 | 0.00 |
| 20 | 04/22 | 05:00 | 49 | 48 | 99 | 29.73 | SSW | 1 | 0.00 |
| 21 | 04/22 | 04:00 | 51 | 50 | 99 | 29.73 | SSW | 0 | 0.00 |
| 22 | 04/22 | 03:00 | 51 | 50 | 99 | 29.73 | SSW | 0 | 0.00 |
| 23 | 04/22 | 02:00 | 51 | 50 | 98 | 29.75 | SW | 0 | 0.00 |
| 24 | 04/22 | 01:00 | 51 | 50 | 98 | 29.75 | SW | 0 | 0.00 |